Audubon, Minnesota
Current Conditions -  °F | °C
As of 4:15 PM on Saturday 20 Dec 2014 (Local Time) from KDTL Reporting Station
Haze Haze  
Wind Chill: -7°   Ceiling: 400
Heat Index: -1°   Visibility: 3mi
Dew Point: -1°   Wind: 15mph
Humidity: 100%   Direction: 170°S
Pressure: 29.98"   Gusts: NA
Location:  46.86°N, 95.98°W
Report Text: KDTL 202215Z AUTO 17013KT 3SM BR OVC004 M01/M01 A2998 RMK AO2
Loading
Personal Weather Stations






























Interactive Weather Map New forecast layout! Learn more

10-Day Weather Forecast

Advertisements
Track Severe Weather on mobile